OICI  Ilam  Airport

Ilam, Iran

Add Bookmark
ICAO OICI
IATA IIL
Type Airport
Status Operational
Latitude
33° 35' 11" N
33.586601
Longitude
46° 24' 17" E
46.404800
Local (DST + 5) UTC (GMT + 4)
Jul 4, 2015 06:13 Jul 4, 2015 01:43
Sunrise-Sunset Local UTC
Begin Civil Twilight 05:48 01:18
Sunrise 06:17 01:47
Sunset 08:39 16:09
End Civil Twilight 09:08 16:38
VFR
VFR
MVFR
MVFR
IFR
IFR
LIFR
LIFR
Unknown
Unavailable

Current Weather

METAR Observed VFR
OICI 040100Z 10004KT CAVOK 26/M06 Q1013 A2994 Sat, Jul 4, 2015 @ 01:00 UTC
(43 Minutes ago)
Visual Flight Rules
Wind Visibility Conditions
100° at 4 knots (7 kph) 10 km or more
  • No significant weather
Temperatures Readings Precipitation
Current Temp
26°C
79°F
Dewpoint
-6°C
21°F
Humidity 12%
Altimeter 29.91" Hg
Sea Level Pressure 1,013 mb
Field Elevation
1,343 m
4,406 ft
None Recorded
-
-

CheckWX.com is intended as a tool to help pilots better visualize weather data. It is not intended as a substitute for an official weather briefing obtained from a Flight Service Station. CheckWX.com does not meet the FAA requirements for an official pre-flight weather briefing. Therefore, it's important that pilots still call and obtain an official FSS pre-flight weather briefing.

© 2007-2015 CheckWX.com
01:43:44 UTC